createdAt,value
2023-04-12T00:02:28.303Z,83.25
2023-04-12T00:04:58.130Z,83.54
2023-04-12T00:07:26.255Z,83.66
2023-04-12T00:09:54.053Z,83.72
2023-04-12T00:12:22.134Z,83.70
2023-04-12T00:14:50.114Z,83.90
2023-04-12T00:17:19.443Z,83.83
2023-04-12T00:19:48.679Z,84.18
2023-04-12T00:22:16.986Z,84.37
2023-04-12T00:24:45.025Z,84.35
2023-04-12T00:27:12.868Z,84.51
2023-04-12T00:29:41.453Z,84.59
2023-04-12T00:32:10.755Z,84.23
2023-04-12T00:34:38.737Z,84.16
2023-04-12T00:37:06.563Z,84.20
2023-04-12T00:39:34.410Z,84.19
2023-04-12T00:42:05.814Z,84.29
2023-04-12T00:44:35.515Z,84.32
2023-04-12T00:47:05.564Z,84.26
2023-04-12T00:49:34.654Z,84.20
2023-04-12T00:52:08.731Z,84.16
2023-04-12T00:54:37.950Z,83.92
2023-04-12T00:57:06.455Z,83.92
2023-04-12T00:59:34.386Z,83.85
2023-04-12T01:02:03.383Z,83.83
2023-04-12T01:04:32.197Z,84.07
2023-04-12T01:07:15.873Z,84.17
2023-04-12T01:09:52.170Z,84.12
2023-04-12T01:12:38.684Z,84.04
2023-04-12T01:15:14.213Z,83.96
2023-04-12T01:18:22.317Z,83.94
2023-04-12T01:21:19.981Z,83.74
2023-04-12T01:23:59.732Z,83.72
2023-04-12T01:26:49.153Z,83.87
2023-04-12T01:29:20.799Z,83.61
2023-04-12T01:32:01.296Z,83.62
2023-04-12T01:34:31.704Z,83.82
2023-04-12T01:37:02.602Z,83.62
2023-04-12T01:39:33.310Z,83.63
2023-04-12T01:42:01.197Z,83.52
2023-04-12T01:44:29.865Z,83.57
2023-04-12T01:46:57.976Z,83.40
2023-04-12T01:49:36.663Z,83.53
2023-04-12T01:52:12.893Z,83.53
2023-04-12T01:54:44.687Z,83.68
2023-04-12T01:57:14.919Z,83.68
2023-04-12T01:59:44.641Z,83.80
2023-04-12T02:02:13.723Z,83.81
2023-04-12T02:04:43.078Z,83.80
2023-04-12T02:07:12.583Z,83.89
2023-04-12T02:09:40.501Z,83.77
2023-04-12T02:12:09.375Z,83.86
2023-04-12T02:14:37.451Z,84.00
2023-04-12T02:17:05.836Z,84.05
2023-04-12T02:19:34.152Z,84.02
2023-04-12T02:22:02.453Z,84.03
2023-04-12T02:24:30.440Z,83.97
2023-04-12T02:26:59.404Z,83.96
2023-04-12T02:29:27.937Z,83.96
2023-04-12T02:31:56.104Z,83.88
2023-04-12T02:34:25.599Z,83.98
2023-04-12T02:37:00.345Z,83.94
2023-04-12T02:39:29.340Z,83.97
2023-04-12T02:41:58.572Z,83.93
2023-04-12T02:44:29.709Z,84.01
2023-04-12T02:47:10.076Z,83.95
2023-04-12T02:49:38.514Z,83.92
2023-04-12T02:52:07.791Z,83.92
2023-04-12T02:54:41.806Z,83.79
2023-04-12T02:57:16.355Z,83.84
2023-04-12T02:59:46.688Z,83.82
2023-04-12T03:02:26.792Z,83.84
2023-04-12T03:04:59.264Z,83.90
2023-04-12T03:07:38.838Z,83.82
2023-04-12T03:10:07.893Z,83.90
2023-04-12T03:12:38.712Z,83.93
2023-04-12T03:15:14.880Z,83.77
2023-04-12T03:17:46.111Z,83.76
2023-04-12T03:20:14.613Z,83.66
2023-04-12T03:22:47.893Z,83.62
2023-04-12T03:25:18.098Z,83.55
2023-04-12T03:27:49.810Z,83.78
2023-04-12T03:30:18.665Z,83.74
2023-04-12T03:32:47.049Z,83.55
2023-04-12T03:35:15.351Z,83.73
2023-04-12T03:37:44.167Z,83.54
2023-04-12T03:40:13.635Z,83.70
2023-04-12T03:42:45.470Z,83.59
2023-04-12T03:45:15.004Z,83.77
2023-04-12T03:47:46.702Z,83.73
2023-04-12T03:50:15.241Z,83.77
2023-04-12T03:52:49.450Z,83.65
2023-04-12T03:55:18.535Z,83.75
2023-04-12T03:57:47.215Z,83.77
2023-04-12T04:00:16.045Z,83.72
2023-04-12T04:03:03.730Z,83.78
2023-04-12T04:05:35.556Z,83.71
2023-04-12T04:08:07.076Z,83.64
2023-04-12T04:10:43.023Z,83.75
2023-04-12T04:13:11.226Z,83.76
2023-04-12T04:15:39.756Z,83.71
2023-04-12T04:18:07.866Z,83.87
2023-04-12T04:20:36.123Z,83.57
2023-04-12T04:23:03.929Z,83.72
2023-04-12T04:25:32.026Z,83.56
2023-04-12T04:28:02.924Z,83.76
2023-04-12T04:30:34.450Z,83.59
2023-04-12T04:33:03.085Z,83.44
2023-04-12T04:35:31.712Z,83.60
2023-04-12T04:38:26.317Z,83.59
2023-04-12T04:41:02.482Z,83.45
2023-04-12T04:43:41.057Z,83.31
2023-04-12T04:46:08.967Z,83.36
2023-04-12T04:48:37.244Z,83.31
2023-04-12T04:51:05.491Z,83.22
2023-04-12T04:53:33.348Z,83.37
2023-04-12T04:56:01.565Z,83.21
2023-04-12T04:58:33.048Z,83.26
2023-04-12T05:01:00.961Z,83.38
2023-04-12T05:03:31.030Z,83.25
2023-04-12T05:06:01.548Z,83.36
2023-04-12T05:08:29.936Z,83.19
2023-04-12T05:10:58.406Z,83.13
2023-04-12T05:13:29.516Z,83.03
2023-04-12T05:15:57.773Z,83.19
2023-04-12T05:18:25.717Z,83.17
2023-04-12T05:20:53.936Z,83.16
2023-04-12T05:23:22.104Z,83.22
2023-04-12T05:25:52.089Z,83.09
2023-04-12T05:28:20.590Z,83.08
2023-04-12T05:30:48.669Z,83.02
2023-04-12T05:33:19.881Z,82.84
2023-04-12T05:35:48.136Z,82.70
2023-04-12T05:38:16.169Z,82.63
2023-04-12T05:40:44.452Z,82.65
2023-04-12T05:43:13.258Z,82.30
2023-04-12T05:45:42.098Z,82.28
2023-04-12T05:48:10.351Z,82.24
2023-04-12T05:50:38.783Z,82.52
2023-04-12T05:53:06.733Z,82.35
2023-04-12T05:55:37.789Z,81.90
2023-04-12T05:58:06.807Z,81.70
2023-04-12T06:00:36.413Z,81.77
2023-04-12T06:03:05.302Z,81.32
2023-04-12T06:05:34.323Z,81.15
2023-04-12T06:08:03.066Z,81.24
2023-04-12T06:10:31.746Z,81.25
2023-04-12T06:12:59.646Z,81.22
2023-04-12T06:15:28.308Z,81.15
2023-04-12T06:17:56.526Z,80.79
2023-04-12T06:20:24.692Z,80.73
2023-04-12T06:22:53.021Z,80.65
2023-04-12T06:25:23.129Z,80.19
2023-04-12T06:27:51.598Z,80.26
2023-04-12T06:30:21.144Z,79.66
2023-04-12T06:32:52.479Z,79.64
2023-04-12T06:35:21.683Z,79.91
2023-04-12T06:37:50.190Z,79.82
2023-04-12T06:40:18.049Z,79.50
2023-04-12T06:42:45.913Z,79.49
2023-04-12T06:45:14.459Z,79.12
2023-04-12T06:47:42.473Z,78.76
2023-04-12T06:50:11.221Z,78.38
2023-04-12T06:52:39.413Z,78.43
2023-04-12T06:55:07.981Z,78.11
2023-04-12T06:57:36.042Z,78.21
2023-04-12T07:00:04.627Z,78.06
2023-04-12T07:02:32.901Z,77.88
2023-04-12T07:05:01.281Z,77.57
2023-04-12T07:07:29.260Z,77.44
2023-04-12T07:09:57.095Z,77.57
2023-04-12T07:12:25.019Z,77.28
2023-04-12T07:14:52.848Z,76.97
2023-04-12T07:17:21.649Z,76.64
2023-04-12T07:19:50.450Z,76.47
2023-04-12T07:22:18.209Z,76.30
2023-04-12T07:24:46.111Z,76.33
2023-04-12T07:27:14.125Z,76.03
2023-04-12T07:29:42.077Z,76.06
2023-04-12T07:32:11.044Z,75.91
2023-04-12T07:34:39.651Z,75.71
2023-04-12T07:37:07.540Z,75.71
2023-04-12T07:39:36.366Z,75.88
2023-04-12T07:42:04.550Z,75.60
2023-04-12T07:44:35.595Z,75.71
2023-04-12T07:47:05.136Z,75.93
2023-04-12T07:49:32.973Z,75.81
2023-04-12T07:52:00.884Z,75.74
2023-04-12T07:54:29.266Z,75.61
2023-04-12T07:57:02.696Z,75.45
2023-04-12T07:59:31.765Z,75.51
2023-04-12T08:02:00.820Z,75.19
2023-04-12T08:04:29.181Z,75.17
2023-04-12T08:06:57.098Z,75.09
2023-04-12T08:09:25.893Z,75.14
2023-04-12T08:11:54.162Z,75.15
2023-04-12T08:14:22.246Z,75.27
2023-04-12T08:16:50.193Z,75.22
2023-04-12T08:19:20.433Z,75.30
2023-04-12T08:21:48.238Z,75.44
2023-04-12T08:24:16.577Z,75.28
2023-04-12T08:26:44.524Z,74.73
2023-04-12T08:29:12.933Z,74.79
2023-04-12T08:31:41.113Z,74.59
2023-04-12T08:34:09.028Z,74.26
2023-04-12T08:36:36.849Z,73.50
2023-04-12T08:39:04.679Z,73.35
2023-04-12T08:41:36.039Z,73.61
2023-04-12T08:44:05.631Z,73.60
2023-04-12T08:46:37.300Z,73.48
2023-04-12T08:49:05.485Z,73.04
2023-04-12T08:51:34.971Z,72.20
2023-04-12T08:54:02.808Z,71.65
2023-04-12T08:56:32.133Z,71.47
2023-04-12T08:59:01.035Z,71.07
2023-04-12T09:01:29.537Z,71.07
2023-04-12T09:03:57.931Z,70.94
2023-04-12T09:06:26.364Z,70.65
2023-04-12T09:08:55.927Z,70.38
2023-04-12T09:11:28.746Z,69.78
2023-04-12T09:14:58.562Z,69.55
2023-04-12T09:17:32.487Z,69.21
2023-04-12T09:20:17.737Z,68.92
2023-04-12T09:22:49.839Z,68.95
2023-04-12T09:25:18.823Z,69.03
2023-04-12T09:28:30.540Z,68.68
2023-04-12T09:31:07.084Z,68.32
2023-04-12T09:33:37.933Z,67.78
2023-04-12T09:36:15.961Z,67.36
2023-04-12T09:39:02.309Z,67.09
2023-04-12T09:41:32.342Z,66.63
2023-04-12T09:44:08.502Z,65.98
2023-04-12T09:46:56.730Z,65.43
2023-04-12T09:49:42.427Z,64.83
2023-04-12T09:52:13.010Z,64.66
2023-04-12T09:54:46.273Z,64.41
2023-04-12T09:57:18.097Z,64.30
2023-04-12T09:59:53.567Z,64.24
2023-04-12T10:02:32.349Z,64.47
2023-04-12T10:05:15.522Z,65.06
2023-04-12T10:07:47.878Z,65.17
2023-04-12T10:10:18.555Z,64.86
2023-04-12T10:12:53.232Z,64.53
2023-04-12T10:15:30.793Z,63.68
2023-04-12T10:19:01.070Z,63.19
2023-04-12T10:21:31.492Z,62.67
2023-04-12T10:24:01.276Z,62.47
2023-04-12T10:26:31.296Z,62.31
2023-04-12T10:29:26.668Z,62.12
2023-04-12T10:31:58.006Z,61.73
2023-04-12T10:34:32.140Z,61.20
2023-04-12T10:37:02.322Z,60.67
2023-04-12T10:39:42.820Z,60.16
2023-04-12T10:42:27.467Z,59.63
2023-04-12T10:45:17.002Z,59.30
2023-04-12T10:47:54.725Z,59.69
2023-04-12T10:50:25.349Z,60.00
2023-04-12T10:53:13.581Z,59.56
2023-04-12T10:55:42.976Z,60.00
2023-04-12T10:58:31.652Z,60.42
2023-04-12T11:00:59.568Z,59.99
2023-04-12T11:03:28.522Z,59.51
2023-04-12T11:06:20.136Z,59.28
2023-04-12T11:09:42.754Z,59.31
2023-04-12T11:12:15.430Z,59.00
2023-04-12T11:14:44.826Z,58.87
2023-04-12T11:17:12.852Z,59.02
2023-04-12T11:19:46.224Z,59.14
2023-04-12T11:22:16.160Z,58.70
2023-04-12T11:24:55.601Z,58.51
2023-04-12T11:27:25.715Z,57.77
2023-04-12T11:29:56.292Z,57.48
2023-04-12T11:32:27.650Z,57.00
2023-04-12T11:34:57.005Z,56.94
2023-04-12T11:37:27.319Z,56.55
2023-04-12T11:39:58.338Z,56.46
2023-04-12T11:42:29.339Z,56.22
2023-04-12T11:45:01.929Z,55.94
2023-04-12T11:47:31.977Z,55.84
2023-04-12T11:50:00.252Z,55.62
2023-04-12T11:52:30.754Z,55.53
2023-04-12T11:55:06.406Z,55.69
2023-04-12T11:57:35.014Z,56.29
2023-04-12T12:00:06.909Z,56.31
2023-04-12T12:02:52.341Z,55.28
2023-04-12T12:05:30.224Z,53.75
2023-04-12T12:08:00.074Z,53.74
2023-04-12T12:10:43.769Z,53.52
2023-04-12T12:13:15.548Z,53.34
2023-04-12T12:15:46.815Z,53.30
2023-04-12T12:18:14.723Z,53.12
2023-04-12T12:20:48.074Z,53.23
2023-04-12T12:23:32.800Z,53.65
2023-04-12T12:27:07.604Z,53.67
2023-04-12T12:28:53.763Z,54.17
2023-04-12T12:31:24.110Z,53.68
2023-04-12T12:33:59.843Z,53.13
2023-04-12T12:36:36.402Z,53.30
2023-04-12T12:39:10.654Z,52.97
2023-04-12T12:41:40.437Z,53.32
2023-04-12T12:44:09.028Z,52.73
2023-04-12T12:49:08.455Z,52.98
2023-04-12T12:51:36.633Z,52.80
2023-04-12T12:54:04.576Z,52.45
2023-04-12T12:56:32.529Z,52.29
2023-04-12T12:59:00.787Z,52.09
2023-04-12T13:01:28.697Z,52.08
2023-04-12T13:03:57.314Z,51.78
2023-04-12T13:06:28.499Z,51.78
2023-04-12T13:08:56.780Z,51.73
2023-04-12T13:11:25.069Z,51.37
2023-04-12T13:13:53.011Z,51.40
2023-04-12T13:16:21.058Z,51.52
2023-04-12T13:18:49.258Z,51.35
2023-04-12T13:21:17.124Z,51.30
2023-04-12T13:23:45.237Z,51.48
2023-04-12T13:26:13.074Z,51.39
2023-04-12T13:28:41.028Z,51.80
2023-04-12T13:31:08.895Z,52.20
2023-04-12T13:33:36.951Z,52.42
2023-04-12T13:36:05.216Z,52.74
2023-04-12T13:38:33.306Z,52.76
2023-04-12T13:41:01.268Z,52.88
2023-04-12T13:43:29.181Z,52.94
2023-04-12T13:45:57.183Z,52.83
2023-04-12T13:48:25.188Z,52.60
2023-04-12T13:50:54.320Z,52.80
2023-04-12T13:53:23.548Z,52.93
2023-04-12T13:55:51.586Z,52.64
2023-04-12T13:58:19.359Z,52.62
2023-04-12T14:00:47.526Z,52.44
2023-04-12T14:03:16.439Z,52.54
2023-04-12T14:05:44.862Z,52.41
2023-04-12T14:08:12.708Z,52.50
2023-04-12T14:10:40.988Z,52.76
2023-04-12T14:13:08.912Z,52.95
2023-04-12T14:15:36.880Z,52.61
2023-04-12T14:18:04.922Z,53.16
2023-04-12T14:20:32.966Z,53.44
2023-04-12T14:23:01.342Z,53.55
2023-04-12T14:25:29.317Z,53.66
2023-04-12T14:27:58.012Z,53.57
2023-04-12T14:30:26.394Z,53.80
2023-04-12T14:32:54.402Z,54.13
2023-04-12T14:35:22.484Z,54.20
2023-04-12T14:37:50.606Z,54.43
2023-04-12T14:40:19.286Z,54.75
2023-04-12T14:42:47.121Z,54.99
2023-04-12T14:45:15.759Z,55.21
2023-04-12T14:47:43.665Z,55.38
2023-04-12T14:50:11.637Z,55.83
2023-04-12T14:52:40.306Z,56.05
2023-04-12T14:55:10.566Z,56.01
2023-04-12T14:57:39.353Z,56.25
2023-04-12T15:00:13.893Z,56.47
2023-04-12T15:02:44.452Z,56.58
2023-04-12T15:05:12.600Z,56.61
2023-04-12T15:07:41.548Z,57.08
2023-04-12T15:10:11.070Z,57.38
2023-04-12T15:12:38.904Z,57.42
2023-04-12T15:15:07.933Z,57.39
2023-04-12T15:17:36.026Z,57.55
2023-04-12T15:20:15.894Z,57.75
2023-04-12T15:22:44.052Z,57.54
2023-04-12T15:25:12.081Z,57.76
2023-04-12T15:27:40.081Z,58.23
2023-04-12T15:30:14.550Z,58.31
2023-04-12T15:32:42.820Z,58.13
2023-04-12T15:35:25.358Z,58.16
2023-04-12T15:37:55.518Z,58.25
2023-04-12T15:40:24.388Z,58.41
2023-04-12T15:42:52.493Z,58.28
2023-04-12T15:45:20.421Z,58.10
2023-04-12T15:47:48.653Z,58.15
2023-04-12T15:50:16.716Z,58.05
2023-04-12T15:52:44.645Z,57.73
2023-04-12T15:55:13.002Z,57.57
2023-04-12T15:57:41.021Z,57.04
2023-04-12T16:00:21.082Z,56.64
2023-04-12T16:02:56.256Z,56.36
2023-04-12T16:05:25.084Z,56.44
2023-04-12T16:07:54.305Z,56.35
2023-04-12T16:10:25.546Z,56.53
2023-04-12T16:12:54.710Z,56.65
2023-04-12T16:15:22.925Z,56.92
2023-04-12T16:17:54.576Z,57.18
2023-04-12T16:20:24.475Z,57.12
2023-04-12T16:22:54.618Z,57.38
2023-04-12T16:25:24.454Z,57.33
2023-04-12T16:27:52.766Z,57.55
2023-04-12T16:30:22.630Z,57.77
2023-04-12T16:32:53.941Z,57.99
2023-04-12T16:35:21.968Z,58.19
2023-04-12T16:37:50.189Z,58.45
2023-04-12T16:40:18.347Z,58.62
2023-04-12T16:42:46.721Z,58.84
2023-04-12T16:45:15.394Z,59.10
2023-04-12T16:47:46.116Z,59.31
2023-04-12T16:50:15.606Z,59.62
2023-04-12T16:52:43.465Z,59.75
2023-04-12T16:55:12.393Z,60.01
2023-04-12T16:57:41.819Z,60.14
2023-04-12T17:00:22.291Z,60.35
2023-04-12T17:02:52.031Z,60.67
2023-04-12T17:05:21.678Z,60.79
2023-04-12T17:07:51.819Z,61.15
2023-04-12T17:10:24.827Z,61.21
2023-04-12T17:12:55.572Z,61.41
2023-04-12T17:15:25.440Z,61.81
2023-04-12T17:18:00.355Z,61.96
2023-04-12T17:20:29.356Z,62.24
2023-04-12T17:22:59.051Z,62.43
2023-04-12T17:25:31.334Z,62.69
2023-04-12T17:28:00.981Z,62.94
2023-04-12T17:30:29.209Z,63.14
2023-04-12T17:32:59.518Z,63.16
2023-04-12T17:35:27.926Z,63.32
2023-04-12T17:37:56.533Z,63.60
2023-04-12T17:40:24.470Z,63.86
2023-04-12T17:42:52.537Z,63.80
2023-04-12T17:45:21.930Z,63.85
2023-04-12T17:47:50.087Z,64.17
2023-04-12T17:50:18.000Z,64.24
2023-04-12T17:52:46.202Z,64.67
2023-04-12T17:55:14.038Z,64.54
2023-04-12T17:57:42.198Z,64.92
2023-04-12T18:00:13.619Z,64.99
2023-04-12T18:02:44.023Z,65.01
2023-04-12T18:05:13.579Z,65.08
2023-04-12T18:07:42.626Z,65.24
2023-04-12T18:10:15.444Z,65.48
2023-04-12T18:12:45.370Z,65.56
2023-04-12T18:15:13.350Z,65.80
2023-04-12T18:17:41.541Z,65.81
2023-04-12T18:20:11.005Z,66.22
2023-04-12T18:22:39.021Z,66.33
2023-04-12T18:25:08.315Z,66.37
2023-04-12T18:27:36.562Z,66.51
2023-04-12T18:30:05.404Z,66.67
2023-04-12T18:32:33.328Z,66.92
2023-04-12T18:35:02.199Z,66.99
2023-04-12T18:37:30.182Z,66.99
2023-04-12T18:39:58.599Z,67.23
2023-04-12T18:42:26.431Z,67.39
2023-04-12T18:44:56.430Z,67.48
2023-04-12T18:47:26.570Z,67.40
2023-04-12T18:49:55.243Z,67.66
2023-04-12T18:52:23.229Z,67.75
2023-04-12T18:54:51.490Z,67.79
2023-04-12T18:57:19.431Z,67.77
2023-04-12T18:59:49.130Z,67.81
2023-04-12T19:02:18.390Z,67.95
2023-04-12T19:04:47.562Z,68.13
2023-04-12T19:07:15.378Z,68.15
2023-04-12T19:09:43.410Z,68.39
2023-04-12T19:12:11.477Z,68.28
2023-04-12T19:14:39.449Z,68.34
2023-04-12T19:17:08.161Z,68.20
2023-04-12T19:19:36.399Z,68.20
2023-04-12T19:22:06.620Z,68.48
2023-04-12T19:24:35.186Z,68.62
2023-04-12T19:27:03.785Z,68.86
2023-04-12T19:29:31.726Z,68.94
2023-04-12T19:32:01.476Z,69.08
2023-04-12T19:34:29.535Z,69.36
2023-04-12T19:36:57.407Z,69.57
2023-04-12T19:39:27.069Z,69.77
2023-04-12T19:41:54.899Z,69.63
2023-04-12T19:44:23.400Z,70.15
2023-04-12T19:46:52.271Z,70.32
2023-04-12T19:49:22.366Z,70.52
2023-04-12T19:51:54.537Z,70.62
2023-04-12T19:54:25.584Z,70.82
2023-04-12T19:56:53.694Z,71.05
2023-04-12T19:59:21.928Z,71.23
2023-04-12T20:01:50.558Z,71.36
2023-04-12T20:04:21.405Z,71.52
2023-04-12T20:06:52.264Z,71.74
2023-04-12T20:09:25.457Z,71.91
2023-04-12T20:11:53.381Z,71.97
2023-04-12T20:14:21.824Z,72.27
2023-04-12T20:16:50.057Z,72.51
2023-04-12T20:19:18.277Z,72.77
2023-04-12T20:21:47.564Z,72.85
2023-04-12T20:24:15.480Z,73.05
2023-04-12T20:26:46.636Z,73.09
2023-04-12T20:29:15.261Z,73.36
2023-04-12T20:31:43.542Z,73.54
2023-04-12T20:34:11.446Z,73.51
2023-04-12T20:36:39.375Z,73.78
2023-04-12T20:39:07.215Z,73.93
2023-04-12T20:41:38.530Z,74.08
2023-04-12T20:44:06.676Z,74.22
2023-04-12T20:46:36.911Z,74.32
2023-04-12T20:49:06.898Z,74.44
2023-04-12T20:51:34.718Z,74.50
2023-04-12T20:54:03.317Z,74.69
2023-04-12T20:56:31.321Z,74.94
2023-04-12T20:59:00.954Z,74.93
2023-04-12T21:01:28.792Z,75.34
2023-04-12T21:03:59.796Z,75.29
2023-04-12T21:06:28.428Z,75.51
2023-04-12T21:08:56.608Z,75.45
2023-04-12T21:11:27.323Z,75.67
2023-04-12T21:13:55.169Z,75.81
2023-04-12T21:16:25.183Z,75.89
2023-04-12T21:18:53.845Z,76.15
2023-04-12T21:21:22.600Z,76.14
2023-04-12T21:23:51.976Z,76.24
2023-04-12T21:26:20.805Z,76.34
2023-04-12T21:28:48.768Z,76.39
2023-04-12T21:31:17.658Z,76.57
2023-04-12T21:33:45.467Z,76.44
2023-04-12T21:36:13.334Z,76.71
2023-04-12T21:38:41.408Z,76.80
2023-04-12T21:41:12.004Z,76.93
2023-04-12T21:43:41.056Z,76.82
2023-04-12T21:46:09.193Z,76.88
2023-04-12T21:48:37.512Z,77.12
2023-04-12T21:51:06.298Z,77.29
2023-04-12T21:53:34.079Z,77.47
2023-04-12T21:56:02.110Z,77.41
2023-04-12T21:58:30.183Z,77.36
2023-04-12T22:00:58.515Z,77.55
2023-04-12T22:03:26.479Z,77.46
2023-04-12T22:06:04.357Z,77.66
2023-04-12T22:08:33.374Z,77.78
2023-04-12T22:11:01.644Z,77.92
2023-04-12T22:13:30.988Z,78.01
2023-04-12T22:16:00.917Z,77.92
2023-04-12T22:18:28.737Z,78.29
2023-04-12T22:20:57.901Z,78.02
2023-04-12T22:23:26.265Z,78.37
2023-04-12T22:25:58.574Z,78.48
2023-04-12T22:28:26.639Z,78.40
2023-04-12T22:30:57.235Z,78.47
2023-04-12T22:33:25.301Z,78.52
2023-04-12T22:35:53.402Z,78.61
2023-04-12T22:38:21.651Z,78.62
2023-04-12T22:40:49.819Z,78.89
2023-04-12T22:43:21.056Z,78.90
2023-04-12T22:45:48.947Z,79.16
2023-04-12T22:48:16.872Z,79.40
2023-04-12T22:50:47.783Z,79.16
2023-04-12T22:53:16.016Z,79.35
2023-04-12T22:55:45.049Z,79.47
2023-04-12T22:58:12.992Z,79.28
2023-04-12T23:00:41.152Z,79.65
2023-04-12T23:03:11.384Z,79.51
2023-04-12T23:05:44.842Z,79.58
2023-04-12T23:08:18.059Z,79.61
2023-04-12T23:10:46.242Z,79.67
2023-04-12T23:13:14.150Z,79.68
2023-04-12T23:15:45.337Z,79.65
2023-04-12T23:18:13.483Z,79.81
2023-04-12T23:20:44.906Z,80.09
2023-04-12T23:23:12.755Z,79.99
2023-04-12T23:25:45.519Z,79.81
2023-04-12T23:28:15.630Z,80.14
2023-04-12T23:30:49.044Z,80.10
2023-04-12T23:33:20.327Z,80.10
2023-04-12T23:35:52.810Z,80.01
2023-04-12T23:38:32.406Z,80.35
2023-04-12T23:41:02.587Z,80.65
2023-04-12T23:43:34.992Z,80.66
2023-04-12T23:46:03.267Z,80.53
2023-04-12T23:48:32.883Z,80.20
2023-04-12T23:51:00.874Z,80.38
2023-04-12T23:53:28.734Z,80.64
2023-04-12T23:55:56.741Z,81.03
2023-04-12T23:58:26.201Z,80.75
